createdAt,value
2023-09-14T00:01:40.286Z,19.98
2023-09-14T00:04:42.311Z,20.17
2023-09-14T00:07:44.270Z,20.14
2023-09-14T00:10:46.147Z,20.13
2023-09-14T00:13:48.030Z,20.07
2023-09-14T00:16:50.008Z,20.07
2023-09-14T00:19:51.911Z,20.05
2023-09-14T00:22:56.347Z,20.00
2023-09-14T00:25:58.316Z,20.05
2023-09-14T00:29:00.346Z,20.03
2023-09-14T00:32:02.290Z,20.03
2023-09-14T00:35:04.369Z,20.05
2023-09-14T00:38:06.568Z,19.95
2023-09-14T00:41:08.761Z,20.07
2023-09-14T00:44:10.628Z,20.00
2023-09-14T00:47:12.595Z,20.08
2023-09-14T00:50:18.901Z,20.01
2023-09-14T00:53:21.616Z,20.06
2023-09-14T00:56:24.519Z,20.06
2023-09-14T00:59:27.521Z,20.04
2023-09-14T01:02:29.451Z,20.01
2023-09-14T01:05:32.724Z,19.99
2023-09-14T01:08:35.588Z,19.94
2023-09-14T01:11:37.621Z,19.89
2023-09-14T01:14:50.212Z,19.86
2023-09-14T01:18:20.891Z,19.82
2023-09-14T01:21:31.997Z,19.82
2023-09-14T01:24:42.064Z,19.80
2023-09-14T01:27:45.454Z,19.71
2023-09-14T01:30:47.396Z,19.75
2023-09-14T01:33:50.204Z,19.72
2023-09-14T01:37:01.018Z,19.63
2023-09-14T01:40:10.254Z,19.66
2023-09-14T01:43:13.814Z,19.68
2023-09-14T01:46:16.212Z,19.57
2023-09-14T01:49:18.353Z,19.49
2023-09-14T01:52:20.427Z,19.59
2023-09-14T01:55:22.312Z,19.58
2023-09-14T01:58:24.370Z,19.49
2023-09-14T02:01:27.049Z,19.48
2023-09-14T02:04:29.096Z,19.54
2023-09-14T02:07:30.983Z,19.56
2023-09-14T02:10:32.849Z,19.52
2023-09-14T02:13:36.104Z,19.42
2023-09-14T02:16:37.966Z,19.50
2023-09-14T02:19:39.856Z,19.49
2023-09-14T02:22:41.755Z,19.39
2023-09-14T02:25:44.585Z,19.49
2023-09-14T02:28:46.561Z,19.50
2023-09-14T02:31:48.968Z,19.50
2023-09-14T02:34:51.035Z,18.98
2023-09-14T02:37:53.048Z,19.40
2023-09-14T02:40:54.922Z,19.31
2023-09-14T02:43:57.518Z,18.83
2023-09-14T02:46:59.913Z,19.49
2023-09-14T02:50:02.036Z,19.47
2023-09-14T02:53:04.133Z,19.63
2023-09-14T02:56:10.877Z,19.57
2023-09-14T02:59:16.567Z,19.67
2023-09-14T03:02:18.589Z,19.70
2023-09-14T03:05:20.802Z,19.69
2023-09-14T03:08:22.787Z,19.73
2023-09-14T03:11:25.121Z,19.71
2023-09-14T03:14:27.387Z,19.69
2023-09-14T03:17:29.393Z,19.75
2023-09-14T03:20:31.404Z,19.77
2023-09-14T03:23:33.404Z,19.74
2023-09-14T03:26:35.428Z,19.68
2023-09-14T03:29:37.373Z,19.62
2023-09-14T03:32:39.497Z,19.61
2023-09-14T03:35:44.545Z,19.57
2023-09-14T03:38:47.036Z,19.58
2023-09-14T03:41:50.444Z,19.61
2023-09-14T03:44:52.416Z,19.47
2023-09-14T03:47:56.778Z,19.61
2023-09-14T03:51:00.873Z,19.56
2023-09-14T03:54:02.771Z,19.54
2023-09-14T03:57:05.331Z,19.68
2023-09-14T04:00:12.321Z,19.64
2023-09-14T04:03:21.484Z,19.71
2023-09-14T04:06:23.579Z,19.74
2023-09-14T04:09:26.968Z,19.74
2023-09-14T04:12:28.855Z,19.62
2023-09-14T04:15:32.732Z,19.60
2023-09-14T04:18:36.742Z,19.58
2023-09-14T04:21:38.997Z,19.25
2023-09-14T04:24:41.143Z,19.53
2023-09-14T04:27:42.981Z,19.44
2023-09-14T04:30:48.483Z,19.53
2023-09-14T04:33:50.820Z,19.46
2023-09-14T04:36:52.819Z,19.52
2023-09-14T04:39:54.819Z,19.49
2023-09-14T04:42:56.756Z,19.43
2023-09-14T04:45:58.721Z,19.46
2023-09-14T04:49:01.592Z,19.56
2023-09-14T04:52:04.619Z,19.60
2023-09-14T04:55:07.131Z,19.33
2023-09-14T04:58:09.093Z,19.64
2023-09-14T05:01:11.167Z,19.76
2023-09-14T05:04:16.320Z,19.78
2023-09-14T05:07:18.393Z,19.83
2023-09-14T05:10:20.412Z,19.85
2023-09-14T05:13:22.519Z,19.96
2023-09-14T05:16:24.582Z,19.98
2023-09-14T05:19:26.782Z,20.05
2023-09-14T05:22:29.496Z,20.08
2023-09-14T05:25:31.909Z,20.10
2023-09-14T05:28:33.813Z,20.10
2023-09-14T05:31:36.197Z,20.09
2023-09-14T05:34:38.605Z,20.17
2023-09-14T05:37:40.556Z,20.31
2023-09-14T05:40:42.552Z,20.32
2023-09-14T05:43:44.433Z,20.32
2023-09-14T05:46:46.591Z,20.29
2023-09-14T05:49:48.917Z,20.07
2023-09-14T05:52:51.650Z,20.22
2023-09-14T05:55:56.150Z,20.19
2023-09-14T05:58:58.427Z,20.10
2023-09-14T06:02:01.916Z,19.98
2023-09-14T06:05:21.072Z,20.02
2023-09-14T06:08:25.914Z,20.00
2023-09-14T06:11:28.923Z,20.06
2023-09-14T06:14:31.020Z,20.11
2023-09-14T06:17:32.887Z,20.20
2023-09-14T06:20:35.075Z,20.37
2023-09-14T06:23:36.949Z,20.43
2023-09-14T06:26:39.580Z,20.62
2023-09-14T06:29:41.427Z,20.69
2023-09-14T06:32:46.437Z,20.56
2023-09-14T06:35:48.416Z,20.82
2023-09-14T06:38:50.251Z,20.89
2023-09-14T06:41:52.167Z,21.07
2023-09-14T06:44:54.127Z,20.65
2023-09-14T06:47:55.972Z,21.34
2023-09-14T06:50:58.036Z,21.36
2023-09-14T06:53:59.864Z,21.36
2023-09-14T06:57:01.788Z,21.33
2023-09-14T07:00:09.470Z,21.40
2023-09-14T07:03:11.485Z,21.58
2023-09-14T07:06:13.486Z,21.63
2023-09-14T07:09:15.417Z,21.55
2023-09-14T07:12:18.477Z,21.78
2023-09-14T07:15:20.298Z,21.78
2023-09-14T07:18:30.945Z,21.77
2023-09-14T07:21:38.802Z,21.78
2023-09-14T07:24:40.787Z,21.80
2023-09-14T07:27:42.874Z,21.84
2023-09-14T07:30:44.771Z,21.92
2023-09-14T07:33:47.248Z,21.79
2023-09-14T07:36:49.365Z,21.94
2023-09-14T07:39:51.333Z,21.98
2023-09-14T07:42:53.225Z,22.03
2023-09-14T07:45:56.969Z,22.14
2023-09-14T07:48:59.053Z,21.93
2023-09-14T07:52:01.042Z,22.26
2023-09-14T07:55:05.560Z,22.42
2023-09-14T07:58:07.920Z,22.56
2023-09-14T08:01:10.098Z,22.99
2023-09-14T08:04:12.377Z,23.43
2023-09-14T08:07:16.117Z,24.11
2023-09-14T08:10:18.114Z,24.46
2023-09-14T08:13:21.014Z,24.88
2023-09-14T08:16:24.704Z,24.94
2023-09-14T08:19:26.704Z,24.95
2023-09-14T08:22:28.818Z,24.91
2023-09-14T08:25:30.717Z,24.69
2023-09-14T08:28:32.698Z,24.09
2023-09-14T08:31:34.661Z,24.55
2023-09-14T08:34:36.600Z,24.43
2023-09-14T08:37:38.533Z,24.30
2023-09-14T08:40:42.681Z,24.18
2023-09-14T08:43:46.718Z,23.98
2023-09-14T08:46:50.006Z,23.98
2023-09-14T08:49:54.347Z,23.90
2023-09-14T08:52:56.559Z,23.82
2023-09-14T08:55:58.549Z,23.74
2023-09-14T08:59:03.305Z,23.71
2023-09-14T09:02:08.868Z,23.55
2023-09-14T09:05:12.797Z,23.46
2023-09-14T09:08:16.960Z,23.33
2023-09-14T09:11:18.982Z,23.25
2023-09-14T09:14:20.840Z,23.25
2023-09-14T09:17:22.819Z,23.07
2023-09-14T09:20:24.901Z,23.19
2023-09-14T09:23:27.103Z,23.03
2023-09-14T09:26:41.574Z,22.98
2023-09-14T09:29:45.314Z,22.69
2023-09-14T09:32:56.398Z,22.85
2023-09-14T09:35:59.777Z,22.87
2023-09-14T09:39:06.114Z,22.84
2023-09-14T09:42:09.655Z,22.47
2023-09-14T09:45:12.499Z,22.50
2023-09-14T09:48:15.317Z,22.28
2023-09-14T09:51:23.304Z,22.06
2023-09-14T09:54:26.139Z,21.96
2023-09-14T09:57:32.833Z,21.90
2023-09-14T10:00:38.044Z,21.84
2023-09-14T10:03:40.290Z,21.82
2023-09-14T10:06:45.177Z,21.82
2023-09-14T10:09:47.603Z,21.73
2023-09-14T10:12:49.775Z,21.80
2023-09-14T10:15:56.733Z,21.75
2023-09-14T10:18:59.523Z,21.73
2023-09-14T10:22:01.835Z,21.72
2023-09-14T10:25:06.038Z,21.70
2023-09-14T10:28:08.885Z,21.75
2023-09-14T10:31:12.529Z,21.71
2023-09-14T10:34:15.902Z,21.61
2023-09-14T10:37:20.585Z,21.56
2023-09-14T10:40:22.936Z,21.64
2023-09-14T10:43:25.156Z,21.58
2023-09-14T10:46:35.165Z,21.54
2023-09-14T10:49:38.044Z,21.26
2023-09-14T10:52:41.715Z,21.44
2023-09-14T10:55:43.771Z,21.40
2023-09-14T10:58:46.252Z,21.33
2023-09-14T11:05:17.097Z,21.35
2023-09-14T11:08:21.202Z,21.38
2023-09-14T11:11:39.718Z,21.02
2023-09-14T11:15:16.859Z,20.62
2023-09-14T11:18:19.263Z,20.61
2023-09-14T11:21:34.714Z,20.74
2023-09-14T11:24:39.648Z,20.81
2023-09-14T11:27:43.844Z,20.82
2023-09-14T11:30:50.156Z,20.85
2023-09-14T11:33:55.848Z,20.77
2023-09-14T11:37:06.933Z,20.75
2023-09-14T11:40:20.699Z,20.70
2023-09-14T11:43:44.411Z,20.64
2023-09-14T11:46:52.657Z,20.54
2023-09-14T11:49:58.913Z,20.25
2023-09-14T11:53:01.782Z,20.51
2023-09-14T11:56:04.440Z,20.57
2023-09-14T11:59:06.320Z,20.66
2023-09-14T12:02:09.764Z,20.68
2023-09-14T12:05:11.649Z,20.96
2023-09-14T12:08:15.557Z,20.98
2023-09-14T12:11:17.729Z,20.96
2023-09-14T12:14:19.569Z,20.93
2023-09-14T12:17:26.490Z,20.89
2023-09-14T12:20:29.563Z,20.79
2023-09-14T12:23:33.686Z,20.60
2023-09-14T12:26:35.958Z,20.73
2023-09-14T12:29:38.107Z,20.74
2023-09-14T12:32:40.757Z,20.75
2023-09-14T12:35:43.662Z,20.70
2023-09-14T12:38:48.398Z,20.77
2023-09-14T12:41:53.673Z,20.78
2023-09-14T12:44:55.748Z,20.69
2023-09-14T12:47:57.876Z,20.64
2023-09-14T12:51:04.343Z,20.76
2023-09-14T12:54:06.482Z,20.91
2023-09-14T12:57:16.057Z,20.96
2023-09-14T13:00:21.271Z,21.06
2023-09-14T13:03:23.589Z,21.16
2023-09-14T13:06:26.008Z,21.22
2023-09-14T13:09:27.998Z,21.25
2023-09-14T13:12:30.100Z,21.33
2023-09-14T13:15:33.057Z,21.39
2023-09-14T13:18:34.983Z,21.27
2023-09-14T13:21:37.095Z,21.39
2023-09-14T13:24:39.144Z,21.36
2023-09-14T13:27:43.978Z,21.25
2023-09-14T13:30:47.116Z,20.93
2023-09-14T13:33:49.070Z,21.12
2023-09-14T13:36:54.061Z,21.13
2023-09-14T13:39:57.092Z,21.14
2023-09-14T13:43:00.578Z,21.14
2023-09-14T13:46:03.397Z,21.12
2023-09-14T13:49:05.948Z,21.08
2023-09-14T13:52:07.811Z,21.18
2023-09-14T13:55:11.245Z,21.27
2023-09-14T13:58:13.364Z,21.38
2023-09-14T14:01:15.420Z,21.51
2023-09-14T14:04:17.326Z,21.56
2023-09-14T14:07:19.748Z,21.62
2023-09-14T14:10:21.536Z,21.74
2023-09-14T14:13:23.434Z,21.84
2023-09-14T14:16:25.312Z,21.94
2023-09-14T14:19:27.347Z,21.83
2023-09-14T14:22:29.861Z,22.00
2023-09-14T14:25:31.860Z,22.23
2023-09-14T14:28:33.688Z,22.33
2023-09-14T14:31:35.951Z,22.37
2023-09-14T14:34:38.376Z,22.44
2023-09-14T14:37:40.337Z,22.36
2023-09-14T14:41:16.978Z,22.09
2023-09-14T14:44:04.288Z,22.09
2023-09-14T14:47:06.391Z,22.04
2023-09-14T14:50:08.736Z,21.93
2023-09-14T14:53:11.681Z,21.92
2023-09-14T14:56:13.540Z,21.84
2023-09-14T14:59:15.340Z,21.72
2023-09-14T15:02:17.197Z,21.68
2023-09-14T15:05:19.291Z,21.62
2023-09-14T15:08:21.371Z,21.42
2023-09-14T15:11:23.542Z,21.54
2023-09-14T15:14:25.490Z,21.46
2023-09-14T15:17:27.867Z,21.41
2023-09-14T15:20:29.933Z,21.32
2023-09-14T15:23:31.878Z,21.24
2023-09-14T15:26:33.787Z,21.28
2023-09-14T15:29:36.454Z,20.75
2023-09-14T15:32:43.012Z,20.82
2023-09-14T15:35:44.877Z,21.21
2023-09-14T15:38:46.997Z,20.85
2023-09-14T15:41:51.620Z,21.20
2023-09-14T15:44:53.513Z,21.23
2023-09-14T15:47:56.694Z,21.17
2023-09-14T15:50:59.008Z,21.24
2023-09-14T15:54:00.895Z,21.23
2023-09-14T15:57:03.196Z,20.85
2023-09-14T16:00:05.617Z,21.13
2023-09-14T16:03:13.075Z,21.04
2023-09-14T16:06:17.434Z,21.10
2023-09-14T16:09:19.412Z,21.02
2023-09-14T16:12:21.325Z,20.96
2023-09-14T16:15:23.253Z,20.95
2023-09-14T16:18:25.218Z,20.93
2023-09-14T16:21:27.195Z,20.54
2023-09-14T16:24:29.135Z,20.82
2023-09-14T16:27:31.110Z,20.79
2023-09-14T16:30:34.564Z,20.77
2023-09-14T16:33:36.438Z,20.74
2023-09-14T16:36:39.624Z,20.71
2023-09-14T16:39:41.613Z,20.63
2023-09-14T16:42:43.793Z,20.65
2023-09-14T16:45:46.758Z,20.62
2023-09-14T16:48:50.412Z,20.63
2023-09-14T16:51:53.665Z,20.59
2023-09-14T16:54:58.699Z,20.54
2023-09-14T16:58:00.900Z,20.55
2023-09-14T17:01:02.919Z,20.57
2023-09-14T17:04:08.329Z,20.52
2023-09-14T17:07:11.182Z,20.52
2023-09-14T17:10:13.224Z,20.26
2023-09-14T17:13:17.915Z,20.52
2023-09-14T17:16:19.961Z,20.51
2023-09-14T17:19:22.805Z,20.45
2023-09-14T17:22:26.745Z,20.42
2023-09-14T17:25:28.655Z,20.44
2023-09-14T17:28:30.538Z,20.46
2023-09-14T17:31:32.431Z,20.47
2023-09-14T17:34:35.375Z,20.47
2023-09-14T17:37:37.868Z,20.47
2023-09-14T17:40:39.749Z,20.46
2023-09-14T17:43:41.865Z,20.46
2023-09-14T17:46:43.983Z,20.22
2023-09-14T17:49:45.838Z,20.44
2023-09-14T17:52:47.841Z,20.43
2023-09-14T17:55:53.888Z,20.46
2023-09-14T17:58:55.765Z,20.45
2023-09-14T18:01:59.431Z,20.38
2023-09-14T18:05:01.454Z,20.44
2023-09-14T18:08:04.795Z,20.42
2023-09-14T18:11:06.662Z,20.43
2023-09-14T18:14:08.508Z,20.37
2023-09-14T18:17:10.393Z,20.11
2023-09-14T18:20:12.882Z,20.34
2023-09-14T18:23:14.747Z,20.29
2023-09-14T18:26:16.709Z,20.31
2023-09-14T18:29:18.864Z,20.24
2023-09-14T18:32:20.729Z,20.22
2023-09-14T18:35:22.929Z,20.28
2023-09-14T18:38:25.805Z,20.20
2023-09-14T18:41:30.028Z,20.27
2023-09-14T18:44:32.157Z,20.25
2023-09-14T18:47:36.616Z,20.24
2023-09-14T18:50:39.178Z,20.24
2023-09-14T18:53:43.203Z,20.19
2023-09-14T18:56:45.038Z,20.28
2023-09-14T18:59:47.007Z,20.21
2023-09-14T19:02:49.022Z,20.22
2023-09-14T19:05:54.027Z,20.27
2023-09-14T19:08:57.340Z,20.23
2023-09-14T19:11:59.373Z,19.81
2023-09-14T19:15:01.343Z,20.19
2023-09-14T19:18:05.561Z,20.23
2023-09-14T19:21:09.351Z,19.92
2023-09-14T19:24:11.234Z,19.96
2023-09-14T19:27:13.165Z,20.17
2023-09-14T19:30:15.544Z,20.27
2023-09-14T19:33:17.488Z,20.28
2023-09-14T19:36:24.215Z,20.29
2023-09-14T19:39:26.042Z,20.31
2023-09-14T19:42:27.906Z,20.27
2023-09-14T19:45:29.867Z,20.27
2023-09-14T19:48:31.897Z,20.05
2023-09-14T19:51:33.910Z,20.18
2023-09-14T19:54:36.172Z,20.25
2023-09-14T19:57:38.445Z,20.27
2023-09-14T20:00:41.349Z,20.19
2023-09-14T20:03:44.900Z,20.14
2023-09-14T20:06:46.858Z,20.20
2023-09-14T20:09:49.231Z,20.10
2023-09-14T20:12:51.234Z,19.92
2023-09-14T20:15:53.456Z,20.12
2023-09-14T20:18:55.584Z,20.15
2023-09-14T20:21:57.716Z,20.02
2023-09-14T20:24:59.757Z,19.74
2023-09-14T20:28:01.792Z,19.83
2023-09-14T20:31:04.778Z,20.03
2023-09-14T20:34:07.277Z,20.05
2023-09-14T20:37:09.449Z,20.05
2023-09-14T20:40:18.834Z,19.73
2023-09-14T20:43:20.671Z,20.02
2023-09-14T20:46:25.955Z,20.00
2023-09-14T20:49:29.745Z,19.97
2023-09-14T20:52:31.615Z,19.44
2023-09-14T20:55:34.794Z,19.95
2023-09-14T20:58:37.332Z,19.96
2023-09-14T21:01:39.498Z,19.87
2023-09-14T21:04:41.517Z,19.95
2023-09-14T21:07:43.748Z,19.95
2023-09-14T21:10:45.613Z,19.92
2023-09-14T21:13:47.471Z,19.93
2023-09-14T21:16:51.905Z,19.96
2023-09-14T21:19:57.036Z,19.92
2023-09-14T21:22:59.104Z,19.86
2023-09-14T21:26:01.103Z,19.98
2023-09-14T21:29:02.999Z,19.85
2023-09-14T21:32:05.135Z,19.98
2023-09-14T21:35:07.861Z,19.90
2023-09-14T21:38:09.938Z,19.98
2023-09-14T21:41:11.775Z,19.92
2023-09-14T21:44:13.537Z,19.97
2023-09-14T21:47:15.880Z,19.99
2023-09-14T21:50:17.976Z,20.02
2023-09-14T21:53:22.065Z,20.06
2023-09-14T21:56:24.236Z,20.09
2023-09-14T21:59:26.175Z,20.01
2023-09-14T22:02:32.097Z,20.11
2023-09-14T22:05:37.678Z,19.79
2023-09-14T22:08:39.558Z,19.89
2023-09-14T22:11:41.539Z,20.13
2023-09-14T22:14:43.392Z,20.14
2023-09-14T22:17:45.527Z,20.07
2023-09-14T22:20:47.312Z,20.17
2023-09-14T22:23:49.214Z,20.20
2023-09-14T22:26:51.506Z,20.20
2023-09-14T22:29:54.584Z,20.23
2023-09-14T22:32:56.852Z,20.16
2023-09-14T22:35:58.799Z,20.19
2023-09-14T22:39:00.565Z,20.20
2023-09-14T22:42:02.432Z,19.89
2023-09-14T22:45:07.267Z,19.90
2023-09-14T22:48:09.140Z,20.22
2023-09-14T22:51:14.814Z,20.18
2023-09-14T22:54:16.755Z,20.18
2023-09-14T22:57:18.560Z,20.12
2023-09-14T23:00:20.596Z,20.09
2023-09-14T23:03:22.494Z,20.17
2023-09-14T23:06:24.962Z,19.81
2023-09-14T23:09:26.926Z,20.18
2023-09-14T23:12:29.427Z,20.15
2023-09-14T23:15:31.400Z,20.25
2023-09-14T23:18:33.510Z,20.24
2023-09-14T23:21:35.411Z,20.22
2023-09-14T23:24:38.713Z,20.26
2023-09-14T23:27:46.769Z,20.29
2023-09-14T23:30:50.056Z,20.30
2023-09-14T23:33:52.042Z,20.27
2023-09-14T23:36:53.989Z,20.25
2023-09-14T23:39:58.028Z,20.24
2023-09-14T23:43:01.383Z,20.19
2023-09-14T23:46:04.988Z,20.24
2023-09-14T23:49:09.500Z,20.14
2023-09-14T23:52:11.754Z,20.22
2023-09-14T23:55:14.786Z,20.19
2023-09-14T23:58:17.589Z,20.20
